sensor_id;sensor_type;location;lat;lon;timestamp;P1;durP1;ratioP1;P2;durP2;ratioP2
14776;SDS011;7480;43.124;25.686;2023-04-16T00:01:26;1.20;;;1.10;;
14776;SDS011;7480;43.124;25.686;2023-04-16T00:03:52;1.13;;;1.03;;
14776;SDS011;7480;43.124;25.686;2023-04-16T00:06:21;2.90;;;1.23;;
14776;SDS011;7480;43.124;25.686;2023-04-16T00:08:48;0.87;;;0.87;;
14776;SDS011;7480;43.124;25.686;2023-04-16T00:11:15;1.13;;;1.03;;
14776;SDS011;7480;43.124;25.686;2023-04-16T00:13:42;1.00;;;1.00;;
14776;SDS011;7480;43.124;25.686;2023-04-16T00:16:09;1.07;;;0.97;;
14776;SDS011;7480;43.124;25.686;2023-04-16T00:18:35;1.30;;;1.00;;
14776;SDS011;7480;43.124;25.686;2023-04-16T00:21:02;3.67;;;1.10;;
14776;SDS011;7480;43.124;25.686;2023-04-16T00:23:29;1.37;;;1.00;;
14776;SDS011;7480;43.124;25.686;2023-04-16T00:25:55;1.13;;;0.80;;
14776;SDS011;7480;43.124;25.686;2023-04-16T00:28:25;1.30;;;0.80;;
14776;SDS011;7480;43.124;25.686;2023-04-16T00:30:53;1.17;;;0.73;;
14776;SDS011;7480;43.124;25.686;2023-04-16T00:33:20;1.03;;;0.80;;
14776;SDS011;7480;43.124;25.686;2023-04-16T00:35:47;1.13;;;1.00;;
14776;SDS011;7480;43.124;25.686;2023-04-16T00:38:14;1.40;;;1.00;;
14776;SDS011;7480;43.124;25.686;2023-04-16T00:40:41;1.73;;;0.93;;
14776;SDS011;7480;43.124;25.686;2023-04-16T00:43:07;1.03;;;0.90;;
14776;SDS011;7480;43.124;25.686;2023-04-16T00:45:34;1.70;;;1.00;;
14776;SDS011;7480;43.124;25.686;2023-04-16T00:48:01;1.00;;;0.90;;
14776;SDS011;7480;43.124;25.686;2023-04-16T00:50:28;0.80;;;0.80;;
14776;SDS011;7480;43.124;25.686;2023-04-16T00:52:55;1.17;;;0.93;;
14776;SDS011;7480;43.124;25.686;2023-04-16T00:55:22;1.10;;;1.00;;
14776;SDS011;7480;43.124;25.686;2023-04-16T00:57:48;1.10;;;1.00;;
14776;SDS011;7480;43.124;25.686;2023-04-16T01:00:15;1.43;;;1.10;;
14776;SDS011;7480;43.124;25.686;2023-04-16T01:02:42;1.23;;;1.10;;
14776;SDS011;7480;43.124;25.686;2023-04-16T01:05:08;1.10;;;0.90;;
14776;SDS011;7480;43.124;25.686;2023-04-16T01:07:35;1.90;;;1.00;;
14776;SDS011;7480;43.124;25.686;2023-04-16T01:10:02;1.13;;;0.83;;
14776;SDS011;7480;43.124;25.686;2023-04-16T01:12:29;1.97;;;1.17;;
14776;SDS011;7480;43.124;25.686;2023-04-16T01:14:56;1.63;;;0.77;;
14776;SDS011;7480;43.124;25.686;2023-04-16T01:17:22;1.43;;;1.27;;
14776;SDS011;7480;43.124;25.686;2023-04-16T01:19:49;1.20;;;1.00;;
14776;SDS011;7480;43.124;25.686;2023-04-16T01:22:16;0.80;;;0.80;;
14776;SDS011;7480;43.124;25.686;2023-04-16T01:24:43;2.37;;;0.87;;
14776;SDS011;7480;43.124;25.686;2023-04-16T01:27:10;1.13;;;0.97;;
14776;SDS011;7480;43.124;25.686;2023-04-16T01:29:36;1.20;;;0.83;;
14776;SDS011;7480;43.124;25.686;2023-04-16T01:32:03;2.34;;;1.19;;
14776;SDS011;7480;43.124;25.686;2023-04-16T01:34:30;1.70;;;1.17;;
14776;SDS011;7480;43.124;25.686;2023-04-16T01:36:56;1.83;;;1.00;;
14776;SDS011;7480;43.124;25.686;2023-04-16T01:39:23;1.60;;;1.00;;
14776;SDS011;7480;43.124;25.686;2023-04-16T01:41:50;1.67;;;1.20;;
14776;SDS011;7480;43.124;25.686;2023-04-16T01:44:16;0.90;;;0.70;;
14776;SDS011;7480;43.124;25.686;2023-04-16T01:46:43;1.53;;;1.00;;
14776;SDS011;7480;43.124;25.686;2023-04-16T01:49:10;2.43;;;1.07;;
14776;SDS011;7480;43.124;25.686;2023-04-16T01:51:37;1.27;;;1.17;;
14776;SDS011;7480;43.124;25.686;2023-04-16T01:54:04;0.97;;;0.80;;
14776;SDS011;7480;43.124;25.686;2023-04-16T01:56:30;1.47;;;1.23;;
14776;SDS011;7480;43.124;25.686;2023-04-16T01:58:58;1.00;;;0.90;;
14776;SDS011;7480;43.124;25.686;2023-04-16T02:01:25;2.33;;;0.70;;
14776;SDS011;7480;43.124;25.686;2023-04-16T02:03:52;1.10;;;1.00;;
14776;SDS011;7480;43.124;25.686;2023-04-16T02:06:19;0.80;;;0.80;;
14776;SDS011;7480;43.124;25.686;2023-04-16T02:08:45;0.70;;;0.70;;
14776;SDS011;7480;43.124;25.686;2023-04-16T02:11:12;0.80;;;0.80;;
14776;SDS011;7480;43.124;25.686;2023-04-16T02:13:38;1.10;;;1.00;;
14776;SDS011;7480;43.124;25.686;2023-04-16T02:16:05;0.90;;;0.90;;
14776;SDS011;7480;43.124;25.686;2023-04-16T02:18:32;0.90;;;0.90;;
14776;SDS011;7480;43.124;25.686;2023-04-16T02:20:59;0.80;;;0.80;;
14776;SDS011;7480;43.124;25.686;2023-04-16T02:23:25;1.20;;;1.10;;
14776;SDS011;7480;43.124;25.686;2023-04-16T02:25:52;1.10;;;1.00;;
14776;SDS011;7480;43.124;25.686;2023-04-16T02:28:18;1.83;;;1.07;;
14776;SDS011;7480;43.124;25.686;2023-04-16T02:30:45;1.40;;;1.20;;
14776;SDS011;7480;43.124;25.686;2023-04-16T02:33:12;1.23;;;1.03;;
14776;SDS011;7480;43.124;25.686;2023-04-16T02:35:39;1.10;;;1.03;;
14776;SDS011;7480;43.124;25.686;2023-04-16T02:38:06;1.33;;;1.03;;
14776;SDS011;7480;43.124;25.686;2023-04-16T02:40:32;5.77;;;2.43;;
14776;SDS011;7480;43.124;25.686;2023-04-16T02:42:59;8.40;;;2.50;;
14776;SDS011;7480;43.124;25.686;2023-04-16T02:45:26;2.57;;;2.00;;
14776;SDS011;7480;43.124;25.686;2023-04-16T02:47:53;3.83;;;2.20;;
14776;SDS011;7480;43.124;25.686;2023-04-16T02:50:19;4.53;;;2.20;;
14776;SDS011;7480;43.124;25.686;2023-04-16T02:52:46;3.57;;;2.40;;
14776;SDS011;7480;43.124;25.686;2023-04-16T02:55:13;4.13;;;2.27;;
14776;SDS011;7480;43.124;25.686;2023-04-16T02:57:40;5.70;;;2.33;;
14776;SDS011;7480;43.124;25.686;2023-04-16T03:00:08;5.60;;;2.67;;
14776;SDS011;7480;43.124;25.686;2023-04-16T03:02:35;3.77;;;2.10;;
14776;SDS011;7480;43.124;25.686;2023-04-16T03:05:02;5.87;;;2.07;;
14776;SDS011;7480;43.124;25.686;2023-04-16T03:07:29;3.17;;;1.90;;
14776;SDS011;7480;43.124;25.686;2023-04-16T03:09:56;3.10;;;2.00;;
14776;SDS011;7480;43.124;25.686;2023-04-16T03:12:22;4.73;;;2.13;;
14776;SDS011;7480;43.124;25.686;2023-04-16T03:14:49;5.03;;;2.70;;
14776;SDS011;7480;43.124;25.686;2023-04-16T03:17:17;6.37;;;3.30;;
14776;SDS011;7480;43.124;25.686;2023-04-16T03:19:44;7.90;;;3.80;;
14776;SDS011;7480;43.124;25.686;2023-04-16T03:22:11;4.73;;;2.23;;
14776;SDS011;7480;43.124;25.686;2023-04-16T03:24:38;7.37;;;2.63;;
14776;SDS011;7480;43.124;25.686;2023-04-16T03:27:04;5.80;;;2.73;;
14776;SDS011;7480;43.124;25.686;2023-04-16T03:29:31;5.97;;;2.90;;
14776;SDS011;7480;43.124;25.686;2023-04-16T03:31:58;5.40;;;2.93;;
14776;SDS011;7480;43.124;25.686;2023-04-16T03:34:25;4.27;;;2.93;;
14776;SDS011;7480;43.124;25.686;2023-04-16T03:36:52;5.13;;;3.07;;
14776;SDS011;7480;43.124;25.686;2023-04-16T03:39:18;10.43;;;3.70;;
14776;SDS011;7480;43.124;25.686;2023-04-16T03:41:45;7.23;;;3.50;;
14776;SDS011;7480;43.124;25.686;2023-04-16T03:44:12;5.00;;;3.30;;
14776;SDS011;7480;43.124;25.686;2023-04-16T03:46:38;5.37;;;2.73;;
14776;SDS011;7480;43.124;25.686;2023-04-16T03:49:05;6.30;;;3.33;;
14776;SDS011;7480;43.124;25.686;2023-04-16T03:51:33;3.87;;;2.80;;
14776;SDS011;7480;43.124;25.686;2023-04-16T03:53:59;5.93;;;2.70;;
14776;SDS011;7480;43.124;25.686;2023-04-16T03:56:26;6.67;;;2.70;;
14776;SDS011;7480;43.124;25.686;2023-04-16T03:58:52;8.27;;;3.30;;
14776;SDS011;7480;43.124;25.686;2023-04-16T04:01:19;6.07;;;3.47;;
14776;SDS011;7480;43.124;25.686;2023-04-16T04:03:46;6.53;;;2.50;;
14776;SDS011;7480;43.124;25.686;2023-04-16T04:06:13;8.83;;;2.53;;
14776;SDS011;7480;43.124;25.686;2023-04-16T04:08:40;4.70;;;2.27;;
14776;SDS011;7480;43.124;25.686;2023-04-16T04:11:06;7.30;;;2.50;;
14776;SDS011;7480;43.124;25.686;2023-04-16T04:13:33;5.57;;;2.30;;
14776;SDS011;7480;43.124;25.686;2023-04-16T04:15:59;7.03;;;2.60;;
14776;SDS011;7480;43.124;25.686;2023-04-16T04:18:26;7.23;;;2.40;;
14776;SDS011;7480;43.124;25.686;2023-04-16T04:20:53;4.37;;;2.10;;
14776;SDS011;7480;43.124;25.686;2023-04-16T04:23:19;3.40;;;1.87;;
14776;SDS011;7480;43.124;25.686;2023-04-16T04:25:46;2.93;;;1.83;;
14776;SDS011;7480;43.124;25.686;2023-04-16T04:28:13;3.40;;;2.30;;
14776;SDS011;7480;43.124;25.686;2023-04-16T04:30:40;5.30;;;2.17;;
14776;SDS011;7480;43.124;25.686;2023-04-16T04:33:06;6.60;;;1.80;;
14776;SDS011;7480;43.124;25.686;2023-04-16T04:35:33;2.93;;;1.63;;
14776;SDS011;7480;43.124;25.686;2023-04-16T04:38:00;6.63;;;2.10;;
14776;SDS011;7480;43.124;25.686;2023-04-16T04:40:28;2.53;;;1.77;;
14776;SDS011;7480;43.124;25.686;2023-04-16T04:42:54;2.40;;;1.77;;
14776;SDS011;7480;43.124;25.686;2023-04-16T04:45:21;3.93;;;2.27;;
14776;SDS011;7480;43.124;25.686;2023-04-16T04:47:53;3.20;;;1.77;;
14776;SDS011;7480;43.124;25.686;2023-04-16T04:50:20;3.30;;;2.10;;
14776;SDS011;7480;43.124;25.686;2023-04-16T04:52:47;3.83;;;2.20;;
14776;SDS011;7480;43.124;25.686;2023-04-16T04:55:14;6.90;;;2.20;;
14776;SDS011;7480;43.124;25.686;2023-04-16T04:57:41;4.70;;;2.13;;
14776;SDS011;7480;43.124;25.686;2023-04-16T05:00:08;5.00;;;2.20;;
14776;SDS011;7480;43.124;25.686;2023-04-16T05:02:35;5.03;;;2.10;;
14776;SDS011;7480;43.124;25.686;2023-04-16T05:05:02;5.30;;;3.10;;
14776;SDS011;7480;43.124;25.686;2023-04-16T05:07:29;4.77;;;2.30;;
14776;SDS011;7480;43.124;25.686;2023-04-16T05:09:56;5.67;;;1.93;;
14776;SDS011;7480;43.124;25.686;2023-04-16T05:12:23;4.70;;;2.13;;
14776;SDS011;7480;43.124;25.686;2023-04-16T05:14:50;6.30;;;2.37;;
14776;SDS011;7480;43.124;25.686;2023-04-16T05:17:16;3.70;;;2.10;;
14776;SDS011;7480;43.124;25.686;2023-04-16T05:19:43;5.27;;;2.27;;
14776;SDS011;7480;43.124;25.686;2023-04-16T05:22:09;5.30;;;2.10;;
14776;SDS011;7480;43.124;25.686;2023-04-16T05:24:36;3.27;;;1.97;;
14776;SDS011;7480;43.124;25.686;2023-04-16T05:27:03;3.17;;;1.90;;
14776;SDS011;7480;43.124;25.686;2023-04-16T05:29:29;3.40;;;2.00;;
14776;SDS011;7480;43.124;25.686;2023-04-16T05:31:56;3.43;;;2.27;;
14776;SDS011;7480;43.124;25.686;2023-04-16T05:34:23;6.27;;;2.40;;
14776;SDS011;7480;43.124;25.686;2023-04-16T05:36:49;4.30;;;2.03;;
14776;SDS011;7480;43.124;25.686;2023-04-16T05:39:16;4.20;;;2.00;;
14776;SDS011;7480;43.124;25.686;2023-04-16T05:41:43;7.43;;;2.40;;
14776;SDS011;7480;43.124;25.686;2023-04-16T05:44:10;5.33;;;2.77;;
14776;SDS011;7480;43.124;25.686;2023-04-16T05:46:37;6.33;;;3.10;;
14776;SDS011;7480;43.124;25.686;2023-04-16T05:49:03;6.03;;;3.40;;
14776;SDS011;7480;43.124;25.686;2023-04-16T05:51:30;6.00;;;3.20;;
14776;SDS011;7480;43.124;25.686;2023-04-16T05:53:57;6.63;;;3.03;;
14776;SDS011;7480;43.124;25.686;2023-04-16T05:56:24;3.77;;;2.93;;
14776;SDS011;7480;43.124;25.686;2023-04-16T05:58:50;4.43;;;3.23;;
14776;SDS011;7480;43.124;25.686;2023-04-16T06:01:17;8.60;;;3.70;;
14776;SDS011;7480;43.124;25.686;2023-04-16T06:03:43;5.27;;;3.80;;
14776;SDS011;7480;43.124;25.686;2023-04-16T06:06:10;8.87;;;3.70;;
14776;SDS011;7480;43.124;25.686;2023-04-16T06:08:37;5.07;;;3.17;;
14776;SDS011;7480;43.124;25.686;2023-04-16T06:11:04;5.40;;;2.63;;
14776;SDS011;7480;43.124;25.686;2023-04-16T06:13:30;5.20;;;3.00;;
14776;SDS011;7480;43.124;25.686;2023-04-16T06:15:57;5.47;;;2.63;;
14776;SDS011;7480;43.124;25.686;2023-04-16T06:18:24;4.80;;;2.60;;
14776;SDS011;7480;43.124;25.686;2023-04-16T06:20:50;8.60;;;3.13;;
14776;SDS011;7480;43.124;25.686;2023-04-16T06:23:17;3.93;;;3.10;;
14776;SDS011;7480;43.124;25.686;2023-04-16T06:25:44;4.80;;;2.37;;
14776;SDS011;7480;43.124;25.686;2023-04-16T06:28:11;5.77;;;2.70;;
14776;SDS011;7480;43.124;25.686;2023-04-16T06:30:37;6.03;;;2.40;;
14776;SDS011;7480;43.124;25.686;2023-04-16T06:33:04;4.03;;;2.37;;
14776;SDS011;7480;43.124;25.686;2023-04-16T06:35:31;3.87;;;1.80;;
14776;SDS011;7480;43.124;25.686;2023-04-16T06:38:00;3.07;;;2.00;;
14776;SDS011;7480;43.124;25.686;2023-04-16T06:40:27;5.33;;;2.07;;
14776;SDS011;7480;43.124;25.686;2023-04-16T06:42:54;3.30;;;1.90;;
14776;SDS011;7480;43.124;25.686;2023-04-16T06:45:21;4.13;;;2.07;;
14776;SDS011;7480;43.124;25.686;2023-04-16T06:47:48;2.60;;;1.70;;
14776;SDS011;7480;43.124;25.686;2023-04-16T06:50:15;4.63;;;2.10;;
14776;SDS011;7480;43.124;25.686;2023-04-16T06:52:41;2.80;;;2.20;;
14776;SDS011;7480;43.124;25.686;2023-04-16T06:55:08;4.83;;;2.30;;
14776;SDS011;7480;43.124;25.686;2023-04-16T06:57:35;3.13;;;2.07;;
14776;SDS011;7480;43.124;25.686;2023-04-16T07:00:03;3.83;;;2.50;;
14776;SDS011;7480;43.124;25.686;2023-04-16T07:02:32;7.50;;;2.40;;
14776;SDS011;7480;43.124;25.686;2023-04-16T07:04:59;5.00;;;2.30;;
14776;SDS011;7480;43.124;25.686;2023-04-16T07:07:26;5.23;;;2.37;;
14776;SDS011;7480;43.124;25.686;2023-04-16T07:09:53;4.63;;;2.90;;
14776;SDS011;7480;43.124;25.686;2023-04-16T07:12:19;5.17;;;2.90;;
14776;SDS011;7480;43.124;25.686;2023-04-16T07:14:48;6.63;;;3.17;;
14776;SDS011;7480;43.124;25.686;2023-04-16T07:17:14;8.53;;;3.50;;
14776;SDS011;7480;43.124;25.686;2023-04-16T07:19:41;7.00;;;3.10;;
14776;SDS011;7480;43.124;25.686;2023-04-16T07:22:07;3.77;;;2.63;;
14776;SDS011;7480;43.124;25.686;2023-04-16T07:24:34;6.10;;;3.03;;
14776;SDS011;7480;43.124;25.686;2023-04-16T07:27:01;5.13;;;3.23;;
14776;SDS011;7480;43.124;25.686;2023-04-16T07:29:30;7.47;;;3.73;;
14776;SDS011;7480;43.124;25.686;2023-04-16T07:31:57;5.70;;;3.60;;
14776;SDS011;7480;43.124;25.686;2023-04-16T07:34:23;8.03;;;4.57;;
14776;SDS011;7480;43.124;25.686;2023-04-16T07:36:50;8.93;;;4.27;;
14776;SDS011;7480;43.124;25.686;2023-04-16T07:39:16;9.40;;;4.80;;
14776;SDS011;7480;43.124;25.686;2023-04-16T07:41:43;9.83;;;4.70;;
14776;SDS011;7480;43.124;25.686;2023-04-16T07:44:10;5.70;;;4.10;;
14776;SDS011;7480;43.124;25.686;2023-04-16T07:46:36;9.77;;;4.50;;
14776;SDS011;7480;43.124;25.686;2023-04-16T07:49:12;5.00;;;4.33;;
14776;SDS011;7480;43.124;25.686;2023-04-16T07:51:39;9.17;;;4.50;;
14776;SDS011;7480;43.124;25.686;2023-04-16T07:54:06;6.23;;;4.43;;
14776;SDS011;7480;43.124;25.686;2023-04-16T07:56:32;6.70;;;4.23;;
14776;SDS011;7480;43.124;25.686;2023-04-16T07:58:59;8.57;;;4.50;;
14776;SDS011;7480;43.124;25.686;2023-04-16T08:01:44;8.13;;;4.20;;
14776;SDS011;7480;43.124;25.686;2023-04-16T08:04:10;8.63;;;4.63;;
14776;SDS011;7480;43.124;25.686;2023-04-16T08:06:37;7.90;;;3.77;;
14776;SDS011;7480;43.124;25.686;2023-04-16T08:09:04;7.37;;;4.30;;
14776;SDS011;7480;43.124;25.686;2023-04-16T08:11:31;7.63;;;4.50;;
14776;SDS011;7480;43.124;25.686;2023-04-16T08:13:57;7.77;;;4.77;;
14776;SDS011;7480;43.124;25.686;2023-04-16T08:16:24;8.47;;;4.47;;
14776;SDS011;7480;43.124;25.686;2023-04-16T08:18:51;8.20;;;4.97;;
14776;SDS011;7480;43.124;25.686;2023-04-16T08:21:17;7.47;;;5.03;;
14776;SDS011;7480;43.124;25.686;2023-04-16T08:23:44;6.47;;;4.67;;
14776;SDS011;7480;43.124;25.686;2023-04-16T08:26:11;5.73;;;4.07;;
14776;SDS011;7480;43.124;25.686;2023-04-16T08:28:37;8.27;;;5.03;;
14776;SDS011;7480;43.124;25.686;2023-04-16T08:31:08;7.95;;;4.40;;
14776;SDS011;7480;43.124;25.686;2023-04-16T08:33:35;8.00;;;4.57;;
14776;SDS011;7480;43.124;25.686;2023-04-16T08:36:02;6.87;;;4.80;;
14776;SDS011;7480;43.124;25.686;2023-04-16T08:38:28;7.67;;;4.33;;
14776;SDS011;7480;43.124;25.686;2023-04-16T08:40:55;5.93;;;4.00;;
14776;SDS011;7480;43.124;25.686;2023-04-16T08:43:23;7.70;;;4.60;;
14776;SDS011;7480;43.124;25.686;2023-04-16T08:45:50;6.70;;;4.07;;
14776;SDS011;7480;43.124;25.686;2023-04-16T08:48:19;7.87;;;3.90;;
14776;SDS011;7480;43.124;25.686;2023-04-16T08:50:48;6.10;;;3.30;;
14776;SDS011;7480;43.124;25.686;2023-04-16T08:53:21;5.60;;;4.07;;
14776;SDS011;7480;43.124;25.686;2023-04-16T08:55:51;8.40;;;4.23;;
14776;SDS011;7480;43.124;25.686;2023-04-16T08:58:18;8.43;;;3.90;;
14776;SDS011;7480;43.124;25.686;2023-04-16T09:00:47;5.70;;;3.77;;
14776;SDS011;7480;43.124;25.686;2023-04-16T09:03:14;6.10;;;4.10;;
14776;SDS011;7480;43.124;25.686;2023-04-16T09:05:41;6.97;;;3.33;;
14776;SDS011;7480;43.124;25.686;2023-04-16T09:08:08;5.70;;;3.90;;
14776;SDS011;7480;43.124;25.686;2023-04-16T09:10:35;7.27;;;3.90;;
14776;SDS011;7480;43.124;25.686;2023-04-16T09:13:01;5.07;;;3.93;;
14776;SDS011;7480;43.124;25.686;2023-04-16T09:15:28;4.63;;;3.50;;
14776;SDS011;7480;43.124;25.686;2023-04-16T09:17:55;6.63;;;3.50;;
14776;SDS011;7480;43.124;25.686;2023-04-16T09:20:23;4.70;;;3.23;;
14776;SDS011;7480;43.124;25.686;2023-04-16T09:22:51;3.73;;;2.67;;
14776;SDS011;7480;43.124;25.686;2023-04-16T09:25:19;6.03;;;3.60;;
14776;SDS011;7480;43.124;25.686;2023-04-16T09:27:47;5.40;;;3.43;;
14776;SDS011;7480;43.124;25.686;2023-04-16T09:32:49;5.37;;;2.73;;
14776;SDS011;7480;43.124;25.686;2023-04-16T09:35:20;5.03;;;3.50;;
14776;SDS011;7480;43.124;25.686;2023-04-16T09:37:56;5.73;;;2.93;;
14776;SDS011;7480;43.124;25.686;2023-04-16T09:40:24;6.77;;;3.60;;
14776;SDS011;7480;43.124;25.686;2023-04-16T09:42:51;6.47;;;3.80;;
14776;SDS011;7480;43.124;25.686;2023-04-16T09:45:22;6.60;;;3.13;;
14776;SDS011;7480;43.124;25.686;2023-04-16T09:47:49;3.43;;;3.13;;
14776;SDS011;7480;43.124;25.686;2023-04-16T09:50:17;7.30;;;3.70;;
14776;SDS011;7480;43.124;25.686;2023-04-16T09:52:46;4.03;;;2.70;;
14776;SDS011;7480;43.124;25.686;2023-04-16T09:55:14;6.93;;;3.83;;
14776;SDS011;7480;43.124;25.686;2023-04-16T09:57:40;6.97;;;3.70;;
14776;SDS011;7480;43.124;25.686;2023-04-16T10:00:08;8.30;;;4.20;;
14776;SDS011;7480;43.124;25.686;2023-04-16T10:02:37;7.20;;;4.30;;
14776;SDS011;7480;43.124;25.686;2023-04-16T10:05:07;7.83;;;4.50;;
14776;SDS011;7480;43.124;25.686;2023-04-16T10:07:34;6.87;;;4.60;;
14776;SDS011;7480;43.124;25.686;2023-04-16T10:10:02;11.50;;;4.70;;
14776;SDS011;7480;43.124;25.686;2023-04-16T10:12:29;8.27;;;4.33;;
14776;SDS011;7480;43.124;25.686;2023-04-16T10:14:58;7.33;;;4.73;;
14776;SDS011;7480;43.124;25.686;2023-04-16T10:17:25;8.00;;;4.50;;
14776;SDS011;7480;43.124;25.686;2023-04-16T10:19:56;6.33;;;4.10;;
14776;SDS011;7480;43.124;25.686;2023-04-16T10:22:23;6.43;;;4.13;;
14776;SDS011;7480;43.124;25.686;2023-04-16T10:24:51;7.03;;;4.20;;
14776;SDS011;7480;43.124;25.686;2023-04-16T10:27:17;5.37;;;4.27;;
14776;SDS011;7480;43.124;25.686;2023-04-16T10:29:44;6.33;;;4.13;;
14776;SDS011;7480;43.124;25.686;2023-04-16T10:32:11;3.47;;;3.17;;
14776;SDS011;7480;43.124;25.686;2023-04-16T10:34:38;7.60;;;4.20;;
14776;SDS011;7480;43.124;25.686;2023-04-16T10:37:05;4.37;;;3.87;;
14776;SDS011;7480;43.124;25.686;2023-04-16T10:39:33;7.07;;;4.00;;
14776;SDS011;7480;43.124;25.686;2023-04-16T10:42:09;8.43;;;4.20;;
14776;SDS011;7480;43.124;25.686;2023-04-16T10:44:38;8.60;;;4.23;;
14776;SDS011;7480;43.124;25.686;2023-04-16T10:47:10;4.60;;;2.83;;
14776;SDS011;7480;43.124;25.686;2023-04-16T10:49:40;8.27;;;4.10;;
14776;SDS011;7480;43.124;25.686;2023-04-16T10:52:12;4.57;;;3.87;;
14776;SDS011;7480;43.124;25.686;2023-04-16T10:54:43;3.90;;;3.43;;
14776;SDS011;7480;43.124;25.686;2023-04-16T10:57:15;6.27;;;4.13;;
14776;SDS011;7480;43.124;25.686;2023-04-16T10:59:43;7.37;;;4.40;;
14776;SDS011;7480;43.124;25.686;2023-04-16T11:02:14;5.27;;;4.40;;
14776;SDS011;7480;43.124;25.686;2023-04-16T11:04:43;6.33;;;4.43;;
14776;SDS011;7480;43.124;25.686;2023-04-16T11:20:06;6.47;;;4.10;;
14776;SDS011;7480;43.124;25.686;2023-04-16T11:22:45;8.47;;;4.17;;
14776;SDS011;7480;43.124;25.686;2023-04-16T11:25:12;6.30;;;3.40;;
14776;SDS011;7480;43.124;25.686;2023-04-16T11:27:56;7.80;;;3.70;;
14776;SDS011;7480;43.124;25.686;2023-04-16T11:30:37;6.00;;;3.70;;
14776;SDS011;7480;43.124;25.686;2023-04-16T11:33:04;5.85;;;3.55;;
14776;SDS011;7480;43.124;25.686;2023-04-16T11:35:33;5.40;;;3.20;;
14776;SDS011;7480;43.124;25.686;2023-04-16T11:38:00;5.37;;;3.10;;
14776;SDS011;7480;43.124;25.686;2023-04-16T11:40:30;5.97;;;3.70;;
14776;SDS011;7480;43.124;25.686;2023-04-16T11:43:00;5.30;;;3.07;;
14776;SDS011;7480;43.124;25.686;2023-04-16T11:45:38;5.83;;;3.57;;
14776;SDS011;7480;43.124;25.686;2023-04-16T11:48:06;4.97;;;3.63;;
14776;SDS011;7480;43.124;25.686;2023-04-16T11:50:36;5.13;;;3.43;;
14776;SDS011;7480;43.124;25.686;2023-04-16T11:53:03;4.67;;;3.27;;
14776;SDS011;7480;43.124;25.686;2023-04-16T11:55:31;5.00;;;3.47;;
14776;SDS011;7480;43.124;25.686;2023-04-16T11:57:57;6.33;;;3.13;;
14776;SDS011;7480;43.124;25.686;2023-04-16T12:00:37;4.53;;;3.07;;
14776;SDS011;7480;43.124;25.686;2023-04-16T12:03:03;10.50;;;3.53;;
14776;SDS011;7480;43.124;25.686;2023-04-16T12:05:34;3.60;;;2.67;;
14776;SDS011;7480;43.124;25.686;2023-04-16T12:08:04;6.70;;;3.60;;
14776;SDS011;7480;43.124;25.686;2023-04-16T12:10:36;7.60;;;3.57;;
14776;SDS011;7480;43.124;25.686;2023-04-16T12:13:12;4.37;;;2.90;;
14776;SDS011;7480;43.124;25.686;2023-04-16T12:15:44;5.83;;;3.90;;
14776;SDS011;7480;43.124;25.686;2023-04-16T12:18:12;5.13;;;3.90;;
14776;SDS011;7480;43.124;25.686;2023-04-16T12:20:39;5.50;;;3.53;;
14776;SDS011;7480;43.124;25.686;2023-04-16T12:23:25;6.33;;;3.43;;
14776;SDS011;7480;43.124;25.686;2023-04-16T12:25:53;7.37;;;3.60;;
14776;SDS011;7480;43.124;25.686;2023-04-16T12:28:53;5.77;;;3.97;;
14776;SDS011;7480;43.124;25.686;2023-04-16T12:31:13;5.77;;;4.13;;
14776;SDS011;7480;43.124;25.686;2023-04-16T12:33:40;6.10;;;4.20;;
14776;SDS011;7480;43.124;25.686;2023-04-16T12:36:17;6.80;;;3.97;;
14776;SDS011;7480;43.124;25.686;2023-04-16T12:38:44;10.90;;;4.40;;
14776;SDS011;7480;43.124;25.686;2023-04-16T12:41:11;4.37;;;3.87;;
14776;SDS011;7480;43.124;25.686;2023-04-16T12:43:38;6.17;;;3.90;;
14776;SDS011;7480;43.124;25.686;2023-04-16T12:46:05;8.13;;;4.13;;
14776;SDS011;7480;43.124;25.686;2023-04-16T12:48:32;5.50;;;4.43;;
14776;SDS011;7480;43.124;25.686;2023-04-16T12:50:59;7.77;;;3.90;;
14776;SDS011;7480;43.124;25.686;2023-04-16T12:53:25;8.07;;;4.67;;
14776;SDS011;7480;43.124;25.686;2023-04-16T12:55:52;9.37;;;4.27;;
14776;SDS011;7480;43.124;25.686;2023-04-16T12:58:19;6.97;;;4.37;;
14776;SDS011;7480;43.124;25.686;2023-04-16T13:00:45;6.23;;;3.60;;
14776;SDS011;7480;43.124;25.686;2023-04-16T13:03:12;6.43;;;4.43;;
14776;SDS011;7480;43.124;25.686;2023-04-16T13:05:39;7.50;;;4.17;;
14776;SDS011;7480;43.124;25.686;2023-04-16T13:08:05;6.00;;;4.20;;
14776;SDS011;7480;43.124;25.686;2023-04-16T13:10:32;4.40;;;3.57;;
14776;SDS011;7480;43.124;25.686;2023-04-16T13:13:00;5.77;;;4.30;;
14776;SDS011;7480;43.124;25.686;2023-04-16T13:15:27;6.40;;;4.00;;
14776;SDS011;7480;43.124;25.686;2023-04-16T13:17:54;9.17;;;4.03;;
14776;SDS011;7480;43.124;25.686;2023-04-16T13:20:21;5.77;;;3.70;;
14776;SDS011;7480;43.124;25.686;2023-04-16T13:22:49;6.63;;;3.80;;
14776;SDS011;7480;43.124;25.686;2023-04-16T13:25:16;6.07;;;3.37;;
14776;SDS011;7480;43.124;25.686;2023-04-16T13:27:43;6.07;;;3.57;;
14776;SDS011;7480;43.124;25.686;2023-04-16T13:30:09;4.43;;;3.53;;
14776;SDS011;7480;43.124;25.686;2023-04-16T13:32:36;6.90;;;3.97;;
14776;SDS011;7480;43.124;25.686;2023-04-16T13:35:03;5.40;;;3.17;;
14776;SDS011;7480;43.124;25.686;2023-04-16T13:37:30;4.93;;;3.23;;
14776;SDS011;7480;43.124;25.686;2023-04-16T13:39:57;4.03;;;2.90;;
14776;SDS011;7480;43.124;25.686;2023-04-16T13:42:23;5.77;;;3.17;;
14776;SDS011;7480;43.124;25.686;2023-04-16T13:44:50;5.83;;;3.23;;
14776;SDS011;7480;43.124;25.686;2023-04-16T13:47:19;4.40;;;3.17;;
14776;SDS011;7480;43.124;25.686;2023-04-16T13:49:46;5.50;;;3.27;;
14776;SDS011;7480;43.124;25.686;2023-04-16T13:52:12;6.30;;;3.00;;
14776;SDS011;7480;43.124;25.686;2023-04-16T13:54:39;5.33;;;3.13;;
14776;SDS011;7480;43.124;25.686;2023-04-16T13:57:06;5.13;;;2.77;;
14776;SDS011;7480;43.124;25.686;2023-04-16T13:59:33;2.83;;;2.63;;
14776;SDS011;7480;43.124;25.686;2023-04-16T14:01:59;7.47;;;3.07;;
14776;SDS011;7480;43.124;25.686;2023-04-16T14:04:26;4.00;;;1.77;;
14776;SDS011;7480;43.124;25.686;2023-04-16T14:06:53;4.47;;;2.50;;
14776;SDS011;7480;43.124;25.686;2023-04-16T14:09:20;3.57;;;2.70;;
14776;SDS011;7480;43.124;25.686;2023-04-16T14:11:46;4.77;;;2.67;;
14776;SDS011;7480;43.124;25.686;2023-04-16T14:14:13;6.00;;;2.93;;
14776;SDS011;7480;43.124;25.686;2023-04-16T14:16:39;3.70;;;2.80;;
14776;SDS011;7480;43.124;25.686;2023-04-16T14:19:06;2.90;;;2.40;;
14776;SDS011;7480;43.124;25.686;2023-04-16T14:21:33;3.17;;;2.77;;
14776;SDS011;7480;43.124;25.686;2023-04-16T14:24:00;4.90;;;3.13;;
14776;SDS011;7480;43.124;25.686;2023-04-16T14:26:27;7.58;;;3.34;;
14776;SDS011;7480;43.124;25.686;2023-04-16T14:28:53;3.00;;;2.70;;
14776;SDS011;7480;43.124;25.686;2023-04-16T14:31:20;5.87;;;3.20;;
14776;SDS011;7480;43.124;25.686;2023-04-16T14:33:47;7.43;;;3.30;;
14776;SDS011;7480;43.124;25.686;2023-04-16T14:36:13;5.90;;;3.10;;
14776;SDS011;7480;43.124;25.686;2023-04-16T14:38:40;4.57;;;3.00;;
14776;SDS011;7480;43.124;25.686;2023-04-16T14:41:08;6.57;;;3.47;;
14776;SDS011;7480;43.124;25.686;2023-04-16T14:43:37;3.13;;;2.93;;
14776;SDS011;7480;43.124;25.686;2023-04-16T14:46:05;5.13;;;3.13;;
14776;SDS011;7480;43.124;25.686;2023-04-16T14:48:32;5.63;;;3.10;;
14776;SDS011;7480;43.124;25.686;2023-04-16T14:50:59;2.90;;;2.70;;
14776;SDS011;7480;43.124;25.686;2023-04-16T14:53:25;4.80;;;3.27;;
14776;SDS011;7480;43.124;25.686;2023-04-16T14:55:52;3.03;;;2.73;;
14776;SDS011;7480;43.124;25.686;2023-04-16T14:58:19;4.47;;;2.97;;
14776;SDS011;7480;43.124;25.686;2023-04-16T15:00:47;6.00;;;3.43;;
14776;SDS011;7480;43.124;25.686;2023-04-16T15:03:13;5.60;;;3.00;;
14776;SDS011;7480;43.124;25.686;2023-04-16T15:05:40;5.13;;;2.93;;